Anaconda, New Mexico
Current Conditions -  °F | °C
As of 11:15 AM on Friday 19 Dec 2014 (Local Time) from KGNT Reporting Station
Broken Clouds Broken Clouds  
Wind Chill: -4°   Ceiling: 2200
Heat Index:   Visibility: 10mi
Dew Point: -5°   Wind: 13mph
Humidity: 64%   Direction: 320°NW
Pressure: 30.27"   Gusts: 17mph
Location:  35.2644°N, 107.733°W
Report Text: KGNT 191815Z AUTO 32011G15KT 10SM BKN022 01/M05 A3027 RMK AO2 T00141047
Loading
Personal Weather Stations






























Interactive Weather Map New forecast layout! Learn more

10-Day Weather Forecast

Advertisements
Track Severe Weather on mobile